createdAt,value
2023-02-19T00:03:03.012Z,2.58
2023-02-19T00:06:05.445Z,2.57
2023-02-19T00:09:23.900Z,2.57
2023-02-19T00:12:52.503Z,2.56
2023-02-19T00:16:02.692Z,2.55
2023-02-19T00:19:42.887Z,2.54
2023-02-19T00:23:01.073Z,2.55
2023-02-19T00:26:37.768Z,2.55
2023-02-19T00:29:58.364Z,2.55
2023-02-19T00:33:29.021Z,2.55
2023-02-19T00:36:54.992Z,2.55
2023-02-19T00:39:53.688Z,2.56
2023-02-19T00:43:05.981Z,2.56
2023-02-19T00:46:53.354Z,2.57
2023-02-19T00:50:20.594Z,2.58
2023-02-19T00:52:53.327Z,2.59
2023-02-19T00:56:13.155Z,2.59
2023-02-19T00:59:05.202Z,2.60
2023-02-19T01:02:34.239Z,2.59
2023-02-19T01:05:21.232Z,2.62
2023-02-19T01:08:33.328Z,2.63
2023-02-19T01:11:42.324Z,2.64
2023-02-19T01:14:54.821Z,2.66
2023-02-19T01:17:49.699Z,2.68
2023-02-19T01:20:19.144Z,2.68
2023-02-19T01:23:22.289Z,2.69
2023-02-19T01:26:43.970Z,2.71
2023-02-19T01:30:31.362Z,2.71
2023-02-19T01:33:59.599Z,2.71
2023-02-19T01:37:11.180Z,2.71
2023-02-19T01:40:49.499Z,2.72
2023-02-19T01:44:18.691Z,2.73
2023-02-19T01:47:09.448Z,2.74
2023-02-19T01:50:15.993Z,2.74
2023-02-19T01:53:43.087Z,2.74
2023-02-19T01:57:23.232Z,2.75
2023-02-19T02:01:11.168Z,2.75
2023-02-19T02:04:48.607Z,2.76
2023-02-19T02:08:34.291Z,2.77
2023-02-19T02:11:55.811Z,2.76
2023-02-19T02:15:21.685Z,2.77
2023-02-19T02:19:01.708Z,2.77
2023-02-19T02:22:23.247Z,2.78
2023-02-19T02:26:00.246Z,2.77
2023-02-19T02:29:15.360Z,2.78
2023-02-19T02:32:47.761Z,2.78
2023-02-19T02:36:05.766Z,2.78
2023-02-19T02:39:48.582Z,2.80
2023-02-19T02:43:16.072Z,2.80
2023-02-19T02:46:37.888Z,2.80
2023-02-19T02:49:58.291Z,2.80
2023-02-19T02:53:13.357Z,2.80
2023-02-19T02:56:50.525Z,2.80
2023-02-19T03:00:07.436Z,2.79
2023-02-19T03:03:25.963Z,2.80
2023-02-19T03:06:46.203Z,2.80
2023-02-19T03:10:07.255Z,2.80
2023-02-19T03:13:52.984Z,2.80
2023-02-19T03:17:14.136Z,2.80
2023-02-19T03:20:43.909Z,2.78
2023-02-19T03:24:07.307Z,2.76
2023-02-19T03:27:54.968Z,2.75
2023-02-19T03:31:13.301Z,2.71
2023-02-19T03:34:53.290Z,2.69
2023-02-19T03:38:32.368Z,2.68
2023-02-19T03:41:32.535Z,2.66
2023-02-19T03:45:38.379Z,2.65
2023-02-19T03:49:07.666Z,2.63
2023-02-19T03:52:40.573Z,2.59
2023-02-19T03:56:31.101Z,2.57
2023-02-19T04:00:07.431Z,2.53
2023-02-19T04:04:00.398Z,2.48
2023-02-19T04:07:47.724Z,2.44
2023-02-19T04:11:26.657Z,2.39
2023-02-19T04:15:13.065Z,2.36
2023-02-19T04:18:42.400Z,2.33
2023-02-19T04:21:59.770Z,2.30
2023-02-19T04:25:22.209Z,2.27
2023-02-19T04:29:09.567Z,2.24
2023-02-19T04:32:34.481Z,2.22
2023-02-19T04:35:57.092Z,2.19
2023-02-19T04:39:21.385Z,2.18
2023-02-19T04:43:08.750Z,2.14
2023-02-19T04:46:40.753Z,2.13
2023-02-19T04:50:20.030Z,2.10
2023-02-19T04:54:07.373Z,2.08
2023-02-19T04:57:35.427Z,2.05
2023-02-19T05:01:02.847Z,2.02
2023-02-19T05:04:32.562Z,2.00
2023-02-19T05:07:59.654Z,1.98
2023-02-19T05:11:46.715Z,1.96
2023-02-19T05:15:12.954Z,1.93
2023-02-19T05:18:34.113Z,1.92
2023-02-19T05:22:20.353Z,1.90
2023-02-19T05:25:44.187Z,1.89
2023-02-19T05:28:57.249Z,1.88
2023-02-19T05:31:56.701Z,1.87
2023-02-19T05:35:07.755Z,1.86
2023-02-19T05:38:14.919Z,1.86
2023-02-19T05:41:45.922Z,1.86
2023-02-19T05:44:42.906Z,1.86
2023-02-19T05:47:44.244Z,1.85
2023-02-19T05:50:56.738Z,1.85
2023-02-19T05:53:43.752Z,1.85
2023-02-19T05:57:07.947Z,1.85
2023-02-19T06:00:46.245Z,1.86
2023-02-19T06:03:39.777Z,1.87
2023-02-19T06:07:07.057Z,1.88
2023-02-19T06:10:23.590Z,1.89
2023-02-19T06:13:53.911Z,1.89
2023-02-19T06:17:41.369Z,1.90
2023-02-19T06:21:23.245Z,1.91
2023-02-19T06:25:06.458Z,1.92
2023-02-19T06:28:26.263Z,1.93
2023-02-19T06:32:03.723Z,1.93
2023-02-19T06:35:24.652Z,1.94
2023-02-19T06:38:27.502Z,1.95
2023-02-19T06:41:37.915Z,1.97
2023-02-19T06:44:47.475Z,1.98
2023-02-19T06:47:52.638Z,1.98
2023-02-19T06:51:21.893Z,1.99
2023-02-19T06:54:44.467Z,2.01
2023-02-19T06:58:01.545Z,2.02
2023-02-19T07:01:05.995Z,2.03
2023-02-19T07:04:37.990Z,2.04
2023-02-19T07:07:55.549Z,2.06
2023-02-19T07:11:15.049Z,2.08
2023-02-19T07:14:25.481Z,2.10
2023-02-19T07:17:29.382Z,2.11
2023-02-19T07:20:57.549Z,2.14
2023-02-19T07:24:05.919Z,2.15
2023-02-19T07:26:57.888Z,2.15
2023-02-19T07:30:06.138Z,2.18
2023-02-19T07:33:24.735Z,2.20
2023-02-19T07:36:26.689Z,2.22
2023-02-19T07:40:03.986Z,2.25
2023-02-19T07:43:42.215Z,2.28
2023-02-19T07:47:19.374Z,2.33
2023-02-19T07:50:46.668Z,2.36
2023-02-19T07:54:10.729Z,2.38
2023-02-19T07:57:20.337Z,2.43
2023-02-19T08:00:33.227Z,2.46
2023-02-19T08:03:50.583Z,2.50
2023-02-19T08:07:10.987Z,2.55
2023-02-19T08:09:40.649Z,2.59
2023-02-19T08:13:40.197Z,2.63
2023-02-19T08:17:00.958Z,2.66
2023-02-19T08:20:38.520Z,2.69
2023-02-19T08:23:51.016Z,2.71
2023-02-19T08:26:42.857Z,2.73
2023-02-19T08:29:39.816Z,2.76
2023-02-19T08:33:09.575Z,2.78
2023-02-19T08:36:34.955Z,2.81
2023-02-19T08:40:02.549Z,2.83
2023-02-19T08:43:32.460Z,2.84
2023-02-19T08:46:53.359Z,2.85
2023-02-19T08:50:12.364Z,2.87
2023-02-19T08:53:50.802Z,2.89
2023-02-19T08:56:46.209Z,2.93
2023-02-19T09:00:13.479Z,2.94
2023-02-19T09:04:00.897Z,2.92
2023-02-19T09:06:39.981Z,2.99
2023-02-19T09:09:52.278Z,3.02
2023-02-19T09:13:12.097Z,3.06
2023-02-19T09:16:11.092Z,3.09
2023-02-19T09:19:41.621Z,3.11
2023-02-19T09:22:34.330Z,3.14
2023-02-19T09:25:27.451Z,3.16
2023-02-19T09:28:34.689Z,3.19
2023-02-19T09:31:37.661Z,3.23
2023-02-19T09:34:55.007Z,3.27
2023-02-19T09:37:45.966Z,3.32
2023-02-19T09:41:07.118Z,3.33
2023-02-19T09:44:04.204Z,3.38
2023-02-19T09:47:20.736Z,3.42
2023-02-19T09:50:25.292Z,3.46
2023-02-19T09:54:05.090Z,3.53
2023-02-19T09:57:22.482Z,3.63
2023-02-19T10:00:40.813Z,3.71
2023-02-19T10:04:28.169Z,3.80
2023-02-19T10:07:44.037Z,3.91
2023-02-19T10:11:13.950Z,4.02
2023-02-19T10:14:24.917Z,4.13
2023-02-19T10:18:03.460Z,4.19
2023-02-19T10:21:21.618Z,4.22
2023-02-19T10:24:59.839Z,4.22
2023-02-19T10:28:17.211Z,4.20
2023-02-19T10:31:47.627Z,4.23
2023-02-19T10:35:25.709Z,4.26
2023-02-19T10:38:54.870Z,4.29
2023-02-19T10:42:10.709Z,4.35
2023-02-19T10:45:40.949Z,4.40
2023-02-19T10:49:04.877Z,4.43
2023-02-19T10:52:31.981Z,4.48
2023-02-19T10:55:45.872Z,4.53
2023-02-19T10:59:14.737Z,4.57
2023-02-19T11:02:57.584Z,4.57
2023-02-19T11:06:08.061Z,4.57
2023-02-19T11:09:17.726Z,4.56
2023-02-19T11:12:41.439Z,4.57
2023-02-19T11:16:01.157Z,4.58
2023-02-19T11:19:38.496Z,4.60
2023-02-19T11:23:20.176Z,4.64
2023-02-19T11:26:40.190Z,4.67
2023-02-19T11:29:55.399Z,4.71
2023-02-19T11:32:58.262Z,4.74
2023-02-19T11:36:30.286Z,4.76
2023-02-19T11:39:49.968Z,4.79
2023-02-19T11:43:15.639Z,4.83
2023-02-19T11:46:57.314Z,4.84
2023-02-19T11:50:16.729Z,4.87
2023-02-19T11:53:33.412Z,4.89
2023-02-19T11:56:51.295Z,4.91
2023-02-19T12:00:35.632Z,4.95
2023-02-19T12:04:35.690Z,4.99
2023-02-19T12:08:28.543Z,5.00
2023-02-19T12:11:58.964Z,5.01
2023-02-19T12:15:37.270Z,5.03
2023-02-19T12:19:07.502Z,5.02
2023-02-19T12:22:48.834Z,5.00
2023-02-19T12:26:36.772Z,4.99
2023-02-19T12:30:29.969Z,4.98
2023-02-19T12:34:06.027Z,4.94
2023-02-19T12:37:59.639Z,4.92
2023-02-19T12:41:36.427Z,4.91
2023-02-19T12:45:26.560Z,4.91
2023-02-19T12:48:59.721Z,4.94
2023-02-19T12:52:16.592Z,4.99
2023-02-19T12:55:41.322Z,5.05
2023-02-19T12:59:08.529Z,5.12
2023-02-19T13:02:50.535Z,5.20
2023-02-19T13:05:57.842Z,5.25
2023-02-19T13:09:31.105Z,5.27
2023-02-19T13:12:29.692Z,5.31
2023-02-19T13:15:40.823Z,5.36
2023-02-19T13:18:55.352Z,5.44
2023-02-19T13:22:22.401Z,5.51
2023-02-19T13:25:52.190Z,5.57
2023-02-19T13:29:08.594Z,5.63
2023-02-19T13:32:44.515Z,5.67
2023-02-19T13:36:19.697Z,5.70
2023-02-19T13:43:00.539Z,5.71
2023-02-19T13:46:23.008Z,5.70
2023-02-19T13:50:03.221Z,5.68
2023-02-19T13:53:36.135Z,5.66
2023-02-19T13:56:51.216Z,5.66
2023-02-19T13:59:39.654Z,5.67
2023-02-19T14:02:47.154Z,5.66
2023-02-19T14:06:10.773Z,5.63
2023-02-19T14:09:49.132Z,5.59
2023-02-19T14:12:58.909Z,5.56
2023-02-19T14:16:19.644Z,5.53
2023-02-19T14:20:21.683Z,5.50
2023-02-19T14:23:53.441Z,5.45
2023-02-19T14:27:34.727Z,5.41
2023-02-19T14:31:07.769Z,5.33
2023-02-19T14:34:29.512Z,5.29
2023-02-19T14:37:51.480Z,5.26
2023-02-19T14:41:32.655Z,5.22
2023-02-19T14:44:59.967Z,5.19
2023-02-19T14:48:45.952Z,5.17
2023-02-19T14:51:52.309Z,5.13
2023-02-19T14:55:12.086Z,5.10
2023-02-19T14:59:03.510Z,5.09
2023-02-19T15:02:30.039Z,5.06
2023-02-19T15:05:37.024Z,5.03
2023-02-19T15:09:24.272Z,4.99
2023-02-19T15:12:48.768Z,4.96
2023-02-19T15:16:26.213Z,4.93
2023-02-19T15:20:04.490Z,4.89
2023-02-19T15:23:36.276Z,4.81
2023-02-19T15:26:50.831Z,4.73
2023-02-19T15:29:41.946Z,4.68
2023-02-19T15:33:31.997Z,4.65
2023-02-19T15:37:17.360Z,4.62
2023-02-19T15:40:52.706Z,4.60
2023-02-19T15:44:19.862Z,4.58
2023-02-19T15:48:09.979Z,4.55
2023-02-19T15:51:08.865Z,4.53
2023-02-19T15:54:35.340Z,4.52
2023-02-19T15:58:13.960Z,4.49
2023-02-19T16:02:38.142Z,4.46
2023-02-19T16:06:04.825Z,4.42
2023-02-19T16:09:50.681Z,4.39
2023-02-19T16:13:21.019Z,4.34
2023-02-19T16:17:16.789Z,4.29
2023-02-19T16:21:02.731Z,4.24
2023-02-19T16:24:11.758Z,4.20
2023-02-19T16:27:42.159Z,4.15
2023-02-19T16:31:35.466Z,4.12
2023-02-19T16:35:24.339Z,4.10
2023-02-19T16:38:56.547Z,4.07
2023-02-19T16:42:35.505Z,4.03
2023-02-19T16:46:02.165Z,4.01
2023-02-19T16:49:20.174Z,3.99
2023-02-19T16:52:48.304Z,3.96
2023-02-19T16:55:53.449Z,3.95
2023-02-19T16:59:33.666Z,3.93
2023-02-19T17:03:21.034Z,3.91
2023-02-19T17:06:40.918Z,3.90
2023-02-19T17:10:18.502Z,3.87
2023-02-19T17:13:58.698Z,3.84
2023-02-19T17:17:46.049Z,3.79
2023-02-19T17:21:05.984Z,3.74
2023-02-19T17:24:25.919Z,3.69
2023-02-19T17:27:38.273Z,3.63
2023-02-19T17:31:00.279Z,3.60
2023-02-19T17:34:10.513Z,3.56
2023-02-19T17:37:05.795Z,3.51
2023-02-19T17:40:10.731Z,3.48
2023-02-19T17:43:21.502Z,3.46
2023-02-19T17:46:11.267Z,3.43
2023-02-19T17:49:13.508Z,3.40
2023-02-19T17:51:56.283Z,3.36
2023-02-19T17:55:13.486Z,3.33
2023-02-19T17:58:48.081Z,3.30
2023-02-19T18:02:05.314Z,3.25
2023-02-19T18:05:35.485Z,3.21
2023-02-19T18:09:05.095Z,3.17
2023-02-19T18:11:55.173Z,3.13
2023-02-19T18:15:04.914Z,3.10
2023-02-19T18:18:52.268Z,3.06
2023-02-19T18:22:09.335Z,3.02
2023-02-19T18:25:46.693Z,2.97
2023-02-19T18:29:13.841Z,2.92
2023-02-19T18:32:08.620Z,2.87
2023-02-19T18:35:26.493Z,2.83
2023-02-19T18:38:37.734Z,2.80
2023-02-19T18:42:08.155Z,2.77
2023-02-19T18:45:28.787Z,2.73
2023-02-19T18:49:16.256Z,2.68
2023-02-19T18:52:29.980Z,2.63
2023-02-19T18:56:00.312Z,2.60
2023-02-19T18:59:09.680Z,2.55
2023-02-19T19:02:14.520Z,2.50
2023-02-19T19:05:12.878Z,2.45
2023-02-19T19:08:19.957Z,2.41
2023-02-19T19:11:27.286Z,2.37
2023-02-19T19:14:28.268Z,2.33
2023-02-19T19:17:54.689Z,2.29
2023-02-19T19:21:12.957Z,2.25
2023-02-19T19:24:12.552Z,2.21
2023-02-19T19:27:28.478Z,2.17
2023-02-19T19:30:45.626Z,2.12
2023-02-19T19:33:52.729Z,2.08
2023-02-19T19:37:28.098Z,2.03
2023-02-19T19:40:48.540Z,1.98
2023-02-19T19:44:15.479Z,1.94
2023-02-19T19:47:32.762Z,1.90
2023-02-19T19:50:40.978Z,1.86
2023-02-19T19:53:59.204Z,1.82
2023-02-19T19:57:42.196Z,1.79
2023-02-19T20:01:11.275Z,1.76
2023-02-19T20:04:06.043Z,1.73
2023-02-19T20:07:33.310Z,1.70
2023-02-19T20:10:45.378Z,1.68
2023-02-19T20:14:10.776Z,1.66
2023-02-19T20:17:37.901Z,1.65
2023-02-19T20:21:10.743Z,1.61
2023-02-19T20:24:24.198Z,1.60
2023-02-19T20:27:42.662Z,1.58
2023-02-19T20:31:20.061Z,1.54
2023-02-19T20:34:24.517Z,1.52
2023-02-19T20:37:50.373Z,1.49
2023-02-19T20:41:20.383Z,1.45
2023-02-19T20:44:30.116Z,1.42
2023-02-19T20:47:36.928Z,1.40
2023-02-19T20:51:01.400Z,1.37
2023-02-19T20:54:08.661Z,1.33
2023-02-19T20:57:29.468Z,1.29
2023-02-19T21:00:29.661Z,1.25
2023-02-19T21:03:28.663Z,1.21
2023-02-19T21:06:21.688Z,1.17
2023-02-19T21:09:09.453Z,1.14
2023-02-19T21:12:31.622Z,1.10
2023-02-19T21:15:22.287Z,1.07
2023-02-19T21:18:25.713Z,1.05
2023-02-19T21:21:52.921Z,1.02
2023-02-19T21:24:55.448Z,1.00
2023-02-19T21:27:54.736Z,0.99
2023-02-19T21:31:42.163Z,0.96
2023-02-19T21:34:31.091Z,0.95
2023-02-19T21:37:42.958Z,0.93
2023-02-19T21:40:52.918Z,0.91
2023-02-19T21:43:43.805Z,0.90
2023-02-19T21:46:49.646Z,0.89
2023-02-19T21:50:08.306Z,0.88
2023-02-19T21:52:49.424Z,0.86
2023-02-19T21:55:30.486Z,0.86
2023-02-19T21:58:57.762Z,0.85
2023-02-19T22:01:53.755Z,0.84
2023-02-19T22:05:03.863Z,0.83
2023-02-19T22:08:16.540Z,0.82
2023-02-19T22:11:34.510Z,0.80
2023-02-19T22:14:36.411Z,0.78
2023-02-19T22:17:20.593Z,0.77
2023-02-19T22:20:30.319Z,0.77
2023-02-19T22:23:37.465Z,0.75
2023-02-19T22:26:44.906Z,0.75
2023-02-19T22:30:06.132Z,0.73
2023-02-19T22:32:55.389Z,0.72
2023-02-19T22:36:45.468Z,0.71
2023-02-19T22:39:37.417Z,0.71
2023-02-19T22:42:27.126Z,0.70
2023-02-19T22:45:56.765Z,0.72
2023-02-19T22:48:55.233Z,0.76
2023-02-19T22:51:27.011Z,0.78
2023-02-19T22:54:31.010Z,0.80
2023-02-19T22:57:43.181Z,0.83
2023-02-19T23:01:11.401Z,0.84
2023-02-19T23:04:33.937Z,0.85
2023-02-19T23:07:41.817Z,0.85
2023-02-19T23:11:19.109Z,0.85
2023-02-19T23:14:23.536Z,0.85
2023-02-19T23:17:43.534Z,0.85
2023-02-19T23:20:53.738Z,0.86
2023-02-19T23:23:53.355Z,0.88
2023-02-19T23:27:11.578Z,0.92
2023-02-19T23:30:38.193Z,0.94
2023-02-19T23:34:18.490Z,0.94
2023-02-19T23:37:19.487Z,0.98
2023-02-19T23:40:22.795Z,0.99
2023-02-19T23:43:48.684Z,0.99
2023-02-19T23:46:55.870Z,1.00
2023-02-19T23:50:01.847Z,1.00
2023-02-19T23:53:14.386Z,1.00
2023-02-19T23:56:54.689Z,1.00
